AGGM

Munda Airport

Solomon Islands
TAF AGGM 210510Z 2106/2206 11007KT 9999 -SHRA FEW017 SCT028 BKN100 FM210900 VRB03KT 9999 FEW016 BKN100 INTER 2106/2109 5000 TSSH SCT016 FEW017CB BKN027 Q 1009 1011 1012 1010
Issued Valid From Valid To
Aug-21 @ 05:10 UTC
(13 hours ago)
Aug-21 @ 06:00 UTC
(12 hours ago)
Aug-22 @ 06:00 UTC
(in 12 hours)
Expired Click to View Aug-21 @ 06:00 to Aug-21 @ 09:00
TAF AGGM 210510Z 2106/2206 11007KT 9999 -SHRA FEW017 SCT028 BKN100
Wind Visibility Clouds Conditions
110° at 7 knots 10,000+ meters
  • Few at 1,700' AGL
  • Scattered at 2,800' AGL
  • Broken at 10,000' AGL
  • Light Rain
Expired Click to View Aug-21 @ 06:00 to Aug-21 @ 09:00
INTER 2106/2109 5000 TSSH SCT016 FEW017CB BKN027 Q 1009 1011 1012 1010
Visibility Clouds Conditions
5,005 meters
  • Scattered at 1,600' AGL
  • Few at 1,700' AGL
  • Broken at 2,700' AGL
  • Thunderstorm
From Aug-21 @ 09:00 to Aug-22 @ 06:00
FM210900 VRB03KT 9999 FEW016 BKN100
Wind Visibility Clouds
Variable at 3 knots 10,000+ meters
  • Few at 1,600' AGL
  • Broken at 10,000' AGL
TAF AGGM 210510Z 2106/2206 11007KT 9999 -SHRA FEW017 SCT028 BKN100 FM210900 VRB03KT 9999 FEW016 BKN100 INTER 2106/2109 5000 TSSH SCT016 FEW017CB BKN027 Q 1009 1011 1012 1010
Issued Aug-21 @ 05:10 UTC
(13 hours ago)
Valid From Aug-21 @ 06:00 UTC
(12 hours ago)
Valid To Aug-22 @ 06:00 UTC
(in 12 hours)
Aug-21 @ 06:00 - Aug-21 @ 09:00
Wind Visibility
110° at 7 knots 10,000+ meters
Clouds
  • Few at 1,700' AGL
  • Scattered at 2,800' AGL
  • Broken at 10,000' AGL
Conditions
  • Light Rain
Aug-21 @ 06:00 - Aug-21 @ 09:00
Clouds
  • Scattered at 1,600' AGL
  • Few at 1,700' AGL
  • Broken at 2,700' AGL
Conditions
  • Thunderstorm
From Aug-21 @ 09:00 - Aug-22 @ 06:00
Wind Visibility
Variable at 3 knots 10,000+ meters
Clouds
  • Few at 1,600' AGL
  • Broken at 10,000' AGL